createdAt,value
2018-03-16T00:01:22.276Z,17.13
2018-03-16T00:03:49.538Z,18.93
2018-03-16T00:06:16.824Z,17.87
2018-03-16T00:08:44.090Z,18.33
2018-03-16T00:11:11.380Z,17.40
2018-03-16T00:13:38.675Z,18.10
2018-03-16T00:16:05.932Z,19.03
2018-03-16T00:18:33.467Z,19.33
2018-03-16T00:21:00.832Z,17.97
2018-03-16T00:23:28.102Z,18.23
2018-03-16T00:25:55.370Z,17.87
2018-03-16T00:28:22.665Z,17.20
2018-03-16T00:30:49.934Z,17.90
2018-03-16T00:33:17.197Z,17.17
2018-03-16T00:35:44.483Z,16.63
2018-03-16T00:38:11.780Z,17.00
2018-03-16T00:40:39.052Z,16.67
2018-03-16T00:43:06.324Z,17.10
2018-03-16T00:45:33.612Z,18.17
2018-03-16T00:48:00.876Z,17.00
2018-03-16T00:50:28.153Z,15.47
2018-03-16T00:52:55.449Z,17.33
2018-03-16T00:55:22.800Z,15.40
2018-03-16T00:57:50.073Z,17.13
2018-03-16T01:00:17.401Z,17.80
2018-03-16T01:02:44.688Z,15.17
2018-03-16T01:05:11.948Z,17.57
2018-03-16T01:07:39.228Z,15.80
2018-03-16T01:10:06.522Z,16.60
2018-03-16T01:12:33.780Z,17.10
2018-03-16T01:15:01.045Z,17.53
2018-03-16T01:17:28.340Z,15.43
2018-03-16T01:19:55.605Z,16.10
2018-03-16T01:22:22.894Z,18.87
2018-03-16T01:24:50.151Z,17.27
2018-03-16T01:27:17.446Z,16.30
2018-03-16T01:29:44.713Z,17.03
2018-03-16T01:32:12.001Z,18.43
2018-03-16T01:34:39.294Z,19.80
2018-03-16T01:37:06.571Z,17.60
2018-03-16T01:39:33.841Z,20.20
2018-03-16T01:42:01.133Z,19.60
2018-03-16T01:44:28.487Z,21.70
2018-03-16T01:46:55.745Z,22.53
2018-03-16T01:49:23.037Z,21.43
2018-03-16T01:51:50.308Z,22.13
2018-03-16T01:54:17.619Z,22.40
2018-03-16T01:56:44.876Z,21.63
2018-03-16T01:59:12.204Z,23.23
2018-03-16T02:01:40.489Z,22.40
2018-03-16T02:04:07.781Z,26.70
2018-03-16T02:06:35.047Z,23.20
2018-03-16T02:09:02.345Z,25.30
2018-03-16T02:11:29.629Z,25.30
2018-03-16T02:13:56.905Z,29.20
2018-03-16T02:16:24.168Z,29.67
2018-03-16T02:18:51.464Z,30.53
2018-03-16T02:21:18.732Z,30.30
2018-03-16T02:23:46.028Z,27.60
2018-03-16T02:26:13.316Z,29.87
2018-03-16T02:28:40.617Z,32.20
2018-03-16T02:31:07.878Z,30.30
2018-03-16T02:33:35.164Z,27.60
2018-03-16T02:36:03.401Z,31.40
2018-03-16T02:38:30.677Z,29.13
2018-03-16T02:40:57.964Z,29.33
2018-03-16T02:43:25.229Z,27.63
2018-03-16T02:45:52.580Z,26.00
2018-03-16T02:48:19.840Z,28.03
2018-03-16T02:50:47.110Z,25.97
2018-03-16T02:53:14.412Z,25.10
2018-03-16T02:55:41.689Z,26.87
2018-03-16T02:58:08.960Z,25.63
2018-03-16T03:00:36.249Z,28.97
2018-03-16T03:03:03.553Z,26.10
2018-03-16T03:05:31.846Z,27.50
2018-03-16T03:07:59.110Z,28.90
2018-03-16T03:10:26.405Z,25.53
2018-03-16T03:12:53.668Z,24.43
2018-03-16T03:15:20.937Z,24.17
2018-03-16T03:17:48.307Z,25.83
2018-03-16T03:20:15.568Z,26.57
2018-03-16T03:22:42.840Z,28.93
2018-03-16T03:25:10.129Z,26.20
2018-03-16T03:27:37.384Z,28.13
2018-03-16T03:30:04.675Z,25.97
2018-03-16T03:32:32.029Z,23.40
2018-03-16T03:34:59.317Z,23.37
2018-03-16T03:37:26.581Z,23.70
2018-03-16T03:39:53.872Z,28.50
2018-03-16T03:42:21.141Z,23.63
2018-03-16T03:44:48.427Z,25.73
2018-03-16T03:47:15.694Z,25.97
2018-03-16T03:49:42.993Z,25.30
2018-03-16T03:52:10.279Z,23.40
2018-03-16T03:54:37.544Z,23.30
2018-03-16T03:57:04.805Z,24.00
2018-03-16T03:59:32.115Z,24.10
2018-03-16T04:01:59.412Z,22.90
2018-03-16T04:04:26.747Z,23.40
2018-03-16T04:06:54.082Z,24.30
2018-03-16T04:09:21.436Z,22.10
2018-03-16T04:11:48.701Z,24.00
2018-03-16T04:14:15.996Z,25.57
2018-03-16T04:16:43.253Z,28.07
2018-03-16T04:19:10.558Z,25.27
2018-03-16T04:21:37.820Z,24.50
2018-03-16T04:24:05.085Z,25.20
2018-03-16T04:26:32.431Z,21.30
2018-03-16T04:28:59.695Z,25.63
2018-03-16T04:31:26.957Z,22.77
2018-03-16T04:33:54.248Z,26.57
2018-03-16T04:36:21.516Z,23.00
2018-03-16T04:38:48.794Z,24.13
2018-03-16T04:41:16.085Z,21.57
2018-03-16T04:43:43.399Z,22.80
2018-03-16T04:46:10.677Z,27.03
2018-03-16T04:48:37.962Z,22.17
2018-03-16T04:51:05.223Z,22.00
2018-03-16T04:53:32.513Z,21.40
2018-03-16T04:55:59.866Z,22.60
2018-03-16T04:58:27.165Z,24.03
2018-03-16T05:00:54.434Z,23.03
2018-03-16T05:03:21.729Z,26.73
2018-03-16T05:05:48.992Z,24.10
2018-03-16T05:08:16.313Z,22.80
2018-03-16T05:10:43.693Z,25.43
2018-03-16T05:13:10.967Z,22.83
2018-03-16T05:15:38.266Z,27.93
2018-03-16T05:18:05.553Z,27.60
2018-03-16T05:20:32.844Z,27.77
2018-03-16T05:23:00.104Z,24.07
2018-03-16T05:25:27.377Z,23.90
2018-03-16T05:27:54.674Z,27.87
2018-03-16T05:30:22.034Z,28.50
2018-03-16T05:32:49.337Z,27.47
2018-03-16T05:35:16.604Z,25.30
2018-03-16T05:37:43.876Z,30.30
2018-03-16T05:40:11.164Z,28.20
2018-03-16T05:42:38.466Z,26.63
2018-03-16T05:45:05.752Z,27.10
2018-03-16T05:47:33.021Z,26.90
2018-03-16T05:50:00.361Z,24.17
2018-03-16T05:52:27.642Z,28.33
2018-03-16T05:54:54.972Z,29.50
2018-03-16T05:57:22.197Z,25.47
2018-03-16T05:59:49.494Z,25.70
2018-03-16T06:02:16.761Z,28.00
2018-03-16T06:04:44.086Z,25.40
2018-03-16T06:07:11.352Z,25.60
2018-03-16T06:09:38.701Z,28.80
2018-03-16T06:12:05.969Z,24.80
2018-03-16T06:14:33.229Z,26.70
2018-03-16T06:17:00.526Z,27.90
2018-03-16T06:19:27.798Z,26.70
2018-03-16T06:21:55.164Z,26.60
2018-03-16T06:24:22.429Z,23.20
2018-03-16T06:26:49.785Z,24.90
2018-03-16T06:29:17.076Z,24.90
2018-03-16T06:31:44.344Z,23.80
2018-03-16T06:34:11.649Z,26.30
2018-03-16T06:36:38.942Z,26.07
2018-03-16T06:39:07.069Z,26.50
2018-03-16T06:41:34.425Z,24.97
2018-03-16T06:44:01.721Z,31.87
2018-03-16T06:46:28.975Z,27.43
2018-03-16T06:48:56.266Z,27.37
2018-03-16T06:51:23.557Z,27.57
2018-03-16T06:53:50.832Z,31.10
2018-03-16T06:56:18.180Z,28.10
2018-03-16T06:58:45.446Z,30.43
2018-03-16T07:01:12.733Z,27.10
2018-03-16T07:03:40.029Z,24.60
2018-03-16T07:06:07.297Z,27.00
2018-03-16T07:08:34.641Z,27.37
2018-03-16T07:11:01.872Z,27.43
2018-03-16T07:13:29.145Z,28.33
2018-03-16T07:15:56.436Z,28.47
2018-03-16T07:18:23.700Z,28.90
2018-03-16T07:20:51.241Z,25.30
2018-03-16T07:23:18.528Z,26.93
2018-03-16T07:25:45.800Z,27.80
2018-03-16T07:28:13.075Z,27.20
2018-03-16T07:30:40.364Z,27.27
2018-03-16T07:33:07.664Z,24.67
2018-03-16T07:35:35.049Z,27.27
2018-03-16T07:38:02.309Z,26.13
2018-03-16T07:40:29.602Z,27.20
2018-03-16T07:42:56.888Z,26.03
2018-03-16T07:45:29.901Z,24.60
2018-03-16T07:47:57.165Z,25.50
2018-03-16T07:50:24.435Z,24.83
2018-03-16T07:52:51.724Z,23.07
2018-03-16T07:55:18.996Z,24.67
2018-03-16T07:57:46.257Z,25.47
2018-03-16T08:00:13.537Z,25.90
2018-03-16T08:02:40.809Z,25.07
2018-03-16T08:05:08.080Z,24.50
2018-03-16T08:07:35.368Z,23.20
2018-03-16T08:10:02.642Z,22.17
2018-03-16T08:12:29.907Z,22.40
2018-03-16T08:14:57.217Z,26.73
2018-03-16T08:17:24.571Z,24.67
2018-03-16T08:19:51.930Z,24.20
2018-03-16T08:22:19.223Z,24.43
2018-03-16T08:24:46.498Z,24.67
2018-03-16T08:27:13.784Z,23.10
2018-03-16T08:29:41.078Z,23.67
2018-03-16T08:32:08.365Z,22.07
2018-03-16T08:34:35.653Z,25.03
2018-03-16T08:37:03.022Z,21.23
2018-03-16T08:39:30.284Z,23.87
2018-03-16T08:41:57.617Z,21.07
2018-03-16T08:44:24.908Z,18.77
2018-03-16T08:46:52.164Z,18.20
2018-03-16T08:49:19.618Z,19.40
2018-03-16T08:51:46.880Z,21.13
2018-03-16T08:54:14.193Z,17.40
2018-03-16T08:56:41.493Z,17.03
2018-03-16T08:59:08.797Z,17.50
2018-03-16T09:01:36.153Z,16.40
2018-03-16T09:04:03.518Z,16.27
2018-03-16T09:06:30.777Z,16.70
2018-03-16T09:08:58.120Z,16.50
2018-03-16T09:11:25.389Z,17.33
2018-03-16T09:13:52.690Z,17.07
2018-03-16T09:16:19.966Z,18.60
2018-03-16T09:18:47.231Z,16.67
2018-03-16T09:21:14.522Z,14.83
2018-03-16T09:23:41.792Z,16.60
2018-03-16T09:26:09.085Z,16.30
2018-03-16T09:28:36.352Z,17.33
2018-03-16T09:31:03.608Z,15.87
2018-03-16T09:33:30.897Z,14.23
2018-03-16T09:35:58.188Z,11.83
2018-03-16T09:38:25.467Z,10.83
2018-03-16T09:40:52.821Z,11.40
2018-03-16T09:43:20.108Z,11.33
2018-03-16T09:45:47.377Z,11.60
2018-03-16T09:48:14.705Z,9.23
2018-03-16T09:50:42.046Z,8.87
2018-03-16T09:53:09.304Z,8.83
2018-03-16T09:55:42.384Z,9.53
2018-03-16T09:58:09.680Z,10.57
2018-03-16T10:00:36.949Z,9.00
2018-03-16T10:03:04.244Z,8.10
2018-03-16T10:05:31.516Z,7.97
2018-03-16T10:07:58.835Z,7.10
2018-03-16T10:10:26.093Z,7.33
2018-03-16T10:12:53.331Z,8.20
2018-03-16T10:15:20.597Z,6.97
2018-03-16T10:17:47.860Z,7.30
2018-03-16T10:20:15.133Z,8.00
2018-03-16T10:22:42.478Z,7.33
2018-03-16T10:25:09.733Z,7.40
2018-03-16T10:27:37.959Z,6.47
2018-03-16T10:30:05.208Z,5.67
2018-03-16T10:32:32.493Z,6.27
2018-03-16T10:34:59.744Z,5.83
2018-03-16T10:37:27.316Z,5.47
2018-03-16T10:39:54.603Z,5.80
2018-03-16T10:42:21.952Z,5.43
2018-03-16T10:44:49.297Z,5.33
2018-03-16T10:47:16.575Z,5.77
2018-03-16T10:49:43.819Z,7.70
2018-03-16T10:52:11.112Z,7.10
2018-03-16T10:54:38.365Z,7.30
2018-03-16T10:57:07.407Z,7.83
2018-03-16T10:59:34.696Z,7.87
2018-03-16T11:02:16.836Z,7.77
2018-03-16T11:04:44.122Z,6.90
2018-03-16T11:07:17.936Z,6.80
2018-03-16T11:09:45.229Z,6.60
2018-03-16T11:12:12.486Z,5.83
2018-03-16T11:14:39.789Z,6.40
2018-03-16T11:17:07.136Z,5.30
2018-03-16T11:19:34.488Z,6.20
2018-03-16T11:22:01.759Z,4.70
2018-03-16T11:24:29.036Z,4.50
2018-03-16T11:26:56.281Z,4.07
2018-03-16T11:29:23.606Z,3.40
2018-03-16T11:31:50.887Z,3.07
2018-03-16T11:34:18.142Z,2.57
2018-03-16T11:36:45.415Z,2.33
2018-03-16T11:39:12.684Z,2.83
2018-03-16T11:41:40.276Z,2.53
2018-03-16T11:44:07.525Z,2.23
2018-03-16T11:46:34.777Z,2.30
2018-03-16T11:49:02.049Z,2.10
2018-03-16T11:51:29.378Z,2.00
2018-03-16T11:53:56.637Z,1.87
2018-03-16T11:56:23.930Z,1.80
2018-03-16T11:58:51.262Z,2.00
2018-03-16T12:01:18.498Z,1.90
2018-03-16T12:03:45.773Z,1.60
2018-03-16T12:06:13.049Z,1.90
2018-03-16T12:08:40.332Z,1.47
2018-03-16T12:11:07.594Z,1.97
2018-03-16T12:13:34.869Z,1.40
2018-03-16T12:16:02.124Z,1.53
2018-03-16T12:18:29.399Z,1.50
2018-03-16T12:20:56.644Z,1.33
2018-03-16T12:23:23.911Z,1.30
2018-03-16T12:25:51.496Z,1.03
2018-03-16T12:28:18.918Z,1.30
2018-03-16T12:30:46.278Z,1.10
2018-03-16T12:33:13.569Z,1.50
2018-03-16T12:35:40.825Z,1.40
2018-03-16T12:38:08.101Z,1.20
2018-03-16T12:40:35.370Z,1.40
2018-03-16T12:43:02.629Z,1.40
2018-03-16T12:45:29.906Z,1.40
2018-03-16T12:47:57.259Z,1.40
2018-03-16T12:50:24.537Z,1.93
2018-03-16T12:52:51.781Z,1.43
2018-03-16T12:55:19.057Z,1.50
2018-03-16T12:57:46.317Z,1.40
2018-03-16T13:00:13.590Z,2.30
2018-03-16T13:02:40.877Z,2.83
2018-03-16T13:05:08.127Z,1.77
2018-03-16T13:07:35.380Z,2.90
2018-03-16T13:10:02.671Z,1.10
2018-03-16T13:12:29.929Z,1.30
2018-03-16T13:14:57.191Z,1.10
2018-03-16T13:17:24.502Z,1.37
2018-03-16T13:19:51.761Z,1.10
2018-03-16T13:22:19.028Z,1.90
2018-03-16T13:24:46.298Z,5.43
2018-03-16T13:27:13.577Z,12.07
2018-03-16T13:29:40.852Z,14.63
2018-03-16T13:32:08.143Z,18.10
2018-03-16T13:34:35.406Z,17.30
2018-03-16T13:37:02.700Z,18.20
2018-03-16T13:39:29.962Z,15.53
2018-03-16T13:41:57.244Z,19.17
2018-03-16T13:44:24.600Z,16.40
2018-03-16T13:46:51.909Z,14.63
2018-03-16T13:49:19.215Z,16.60
2018-03-16T13:51:46.545Z,17.00
2018-03-16T13:54:13.764Z,17.53
2018-03-16T13:56:41.035Z,17.60
2018-03-16T13:59:08.692Z,20.80
2018-03-16T14:01:35.960Z,17.30
2018-03-16T14:04:03.297Z,21.20
2018-03-16T14:06:30.563Z,19.10
2018-03-16T14:08:57.845Z,20.13
2018-03-16T14:11:25.203Z,19.70
2018-03-16T14:13:52.561Z,18.33
2018-03-16T14:16:19.870Z,19.77
2018-03-16T14:18:47.161Z,22.93
2018-03-16T14:21:14.460Z,22.20
2018-03-16T14:23:41.728Z,23.13
2018-03-16T14:26:08.997Z,23.93
2018-03-16T14:28:36.290Z,31.03
2018-03-16T14:31:03.572Z,22.03
2018-03-16T14:33:30.843Z,21.07
2018-03-16T14:35:58.136Z,19.87
2018-03-16T14:38:25.405Z,19.47
2018-03-16T14:40:52.684Z,20.37
2018-03-16T14:43:19.953Z,19.13
2018-03-16T14:45:47.238Z,20.27
2018-03-16T14:48:14.505Z,19.00
2018-03-16T14:50:41.789Z,21.03
2018-03-16T14:53:09.058Z,19.50
2018-03-16T14:55:36.344Z,20.00
2018-03-16T14:58:03.625Z,21.60
2018-03-16T15:00:30.889Z,20.80
2018-03-16T15:02:58.248Z,20.47
2018-03-16T15:05:25.528Z,17.80
2018-03-16T15:07:52.847Z,18.87
2018-03-16T15:10:20.201Z,17.07
2018-03-16T15:12:47.490Z,18.00
2018-03-16T15:15:14.810Z,17.13
2018-03-16T15:17:42.093Z,9.03
2018-03-16T15:20:09.349Z,9.00
2018-03-16T15:22:36.616Z,8.13
2018-03-16T15:25:03.872Z,8.93
2018-03-16T15:27:31.157Z,8.47
2018-03-16T15:29:58.420Z,7.77
2018-03-16T15:32:25.697Z,7.17
2018-03-16T15:34:52.959Z,8.10
2018-03-16T15:37:20.214Z,6.93
2018-03-16T15:39:47.504Z,7.30
2018-03-16T15:42:14.795Z,6.70
2018-03-16T15:44:42.072Z,7.33
2018-03-16T15:47:09.328Z,7.33
2018-03-16T15:49:36.615Z,9.30
2018-03-16T15:52:03.877Z,7.83
2018-03-16T15:54:31.157Z,9.70
2018-03-16T15:56:58.422Z,9.70
2018-03-16T15:59:25.717Z,9.77
2018-03-16T16:01:52.953Z,10.00
2018-03-16T16:04:20.225Z,8.17
2018-03-16T16:06:47.496Z,8.23
2018-03-16T16:09:14.779Z,9.30
2018-03-16T16:11:42.032Z,8.80
2018-03-16T16:14:09.321Z,8.37
2018-03-16T16:16:36.655Z,8.93
2018-03-16T16:19:03.941Z,8.77
2018-03-16T16:21:31.193Z,9.70
2018-03-16T16:23:58.519Z,10.47
2018-03-16T16:26:26.208Z,9.70
2018-03-16T16:28:53.454Z,8.57
2018-03-16T16:31:20.789Z,9.63
2018-03-16T16:33:48.047Z,8.30
2018-03-16T16:36:15.312Z,8.30
2018-03-16T16:38:42.581Z,8.50
2018-03-16T16:41:09.861Z,8.60
2018-03-16T16:43:37.116Z,8.87
2018-03-16T16:46:04.399Z,9.30
2018-03-16T16:48:31.661Z,8.93
2018-03-16T16:50:58.956Z,10.00
2018-03-16T16:53:26.214Z,9.23
2018-03-16T16:55:53.529Z,8.23
2018-03-16T16:58:20.793Z,8.23
2018-03-16T17:00:48.076Z,8.43
2018-03-16T17:03:15.345Z,10.20
2018-03-16T17:05:42.638Z,8.30
2018-03-16T17:08:09.902Z,9.20
2018-03-16T17:10:37.249Z,8.73
2018-03-16T17:13:04.541Z,7.47
2018-03-16T17:15:31.806Z,8.00
2018-03-16T17:17:59.085Z,7.77
2018-03-16T17:20:26.347Z,8.37
2018-03-16T17:22:54.541Z,10.70
2018-03-16T17:25:21.802Z,6.43
2018-03-16T17:27:49.050Z,7.00
2018-03-16T17:30:16.319Z,6.20
2018-03-16T17:32:43.599Z,6.30
2018-03-16T17:35:10.852Z,8.40
2018-03-16T17:37:38.167Z,7.43
2018-03-16T17:40:05.420Z,9.03
2018-03-16T17:42:32.696Z,8.53
2018-03-16T17:44:59.961Z,7.20
2018-03-16T17:47:27.235Z,7.83
2018-03-16T17:49:54.531Z,8.63
2018-03-16T17:52:21.790Z,8.57
2018-03-16T17:54:49.075Z,7.63
2018-03-16T17:57:16.338Z,6.27
2018-03-16T17:59:43.603Z,5.73
2018-03-16T18:02:10.866Z,6.07
2018-03-16T18:04:38.136Z,7.07
2018-03-16T18:07:05.411Z,6.10
2018-03-16T18:09:32.766Z,6.97
2018-03-16T18:12:00.015Z,6.53
2018-03-16T18:14:27.290Z,6.73
2018-03-16T18:16:54.542Z,7.40
2018-03-16T18:19:21.812Z,5.60
2018-03-16T18:21:49.144Z,6.10
2018-03-16T18:24:16.420Z,7.33
2018-03-16T18:26:43.672Z,7.23
2018-03-16T18:29:10.945Z,9.67
2018-03-16T18:31:38.209Z,7.03
2018-03-16T18:34:05.498Z,8.30
2018-03-16T18:36:32.735Z,7.33
2018-03-16T18:39:00.011Z,7.67
2018-03-16T18:41:27.368Z,7.97
2018-03-16T18:43:54.616Z,8.13
2018-03-16T18:46:21.889Z,8.27
2018-03-16T18:48:49.149Z,9.13
2018-03-16T18:51:16.431Z,8.63
2018-03-16T18:53:43.692Z,10.00
2018-03-16T18:56:10.976Z,9.63
2018-03-16T18:58:38.232Z,9.80
2018-03-16T19:01:05.518Z,10.53
2018-03-16T19:03:32.785Z,11.00
2018-03-16T19:06:00.104Z,10.37
2018-03-16T19:08:27.441Z,12.70
2018-03-16T19:10:54.720Z,13.73
2018-03-16T19:13:21.980Z,11.37
2018-03-16T19:15:49.331Z,10.87
2018-03-16T19:18:16.594Z,10.30
2018-03-16T19:20:43.861Z,10.00
2018-03-16T19:23:11.147Z,11.00
2018-03-16T19:25:38.415Z,10.40
2018-03-16T19:28:05.699Z,11.10
2018-03-16T19:30:32.958Z,10.50
2018-03-16T19:33:00.247Z,10.10
2018-03-16T19:35:27.508Z,10.60
2018-03-16T19:37:54.790Z,9.53
2018-03-16T19:40:22.048Z,8.83
2018-03-16T19:42:49.334Z,9.93
2018-03-16T19:45:16.599Z,9.43
2018-03-16T19:47:43.876Z,10.27
2018-03-16T19:50:11.137Z,9.20
2018-03-16T19:52:38.436Z,9.30
2018-03-16T19:55:05.684Z,7.43
2018-03-16T19:57:32.941Z,8.77
2018-03-16T20:02:33.837Z,8.43
2018-03-16T20:05:01.120Z,8.60
2018-03-16T20:07:28.384Z,8.63
2018-03-16T20:09:55.660Z,9.23
2018-03-16T20:12:22.913Z,8.50
2018-03-16T20:14:50.192Z,8.97
2018-03-16T20:17:17.446Z,7.57
2018-03-16T20:19:44.724Z,7.80
2018-03-16T20:22:11.977Z,8.40
2018-03-16T20:24:39.254Z,7.80
2018-03-16T20:27:06.509Z,9.33
2018-03-16T20:29:33.790Z,8.50
2018-03-16T20:32:01.047Z,9.10
2018-03-16T20:34:28.327Z,8.67
2018-03-16T20:36:55.590Z,9.10
2018-03-16T20:39:22.849Z,7.77
2018-03-16T20:41:50.102Z,8.30
2018-03-16T20:44:17.391Z,8.93
2018-03-16T20:46:44.652Z,7.87
2018-03-16T20:49:11.917Z,8.43
2018-03-16T20:51:39.188Z,7.60
2018-03-16T20:54:06.441Z,8.37
2018-03-16T20:56:33.736Z,10.23
2018-03-16T20:59:01.146Z,8.80
2018-03-16T21:01:28.432Z,8.60
2018-03-16T21:03:55.691Z,8.47
2018-03-16T21:06:23.021Z,8.60
2018-03-16T21:08:50.239Z,8.50
2018-03-16T21:11:17.504Z,7.97
2018-03-16T21:13:44.756Z,8.30
2018-03-16T21:16:12.038Z,8.23
2018-03-16T21:18:39.295Z,8.90
2018-03-16T21:21:06.570Z,8.27
2018-03-16T21:23:33.826Z,7.90
2018-03-16T21:26:01.084Z,8.00
2018-03-16T21:28:28.360Z,9.03
2018-03-16T21:30:55.625Z,9.00
2018-03-16T21:33:22.992Z,8.67
2018-03-16T21:35:50.246Z,9.50
2018-03-16T21:38:17.529Z,9.47
2018-03-16T21:40:44.792Z,12.20
2018-03-16T21:43:12.096Z,9.67
2018-03-16T21:45:39.370Z,11.57
2018-03-16T21:48:06.709Z,9.37
2018-03-16T21:50:33.974Z,9.77
2018-03-16T21:53:01.260Z,11.13
2018-03-16T21:55:28.525Z,8.93
2018-03-16T21:57:55.807Z,11.90
2018-03-16T22:00:23.072Z,12.07
2018-03-16T22:02:50.405Z,15.20
2018-03-16T22:05:17.727Z,12.13
2018-03-16T22:07:45.001Z,12.40
2018-03-16T22:10:12.299Z,14.57
2018-03-16T22:12:39.565Z,13.90
2018-03-16T22:15:06.848Z,13.03
2018-03-16T22:17:34.130Z,15.50
2018-03-16T22:20:01.514Z,14.50
2018-03-16T22:22:28.782Z,13.73
2018-03-16T22:24:56.065Z,14.30
2018-03-16T22:27:23.378Z,13.70
2018-03-16T22:29:50.661Z,14.63
2018-03-16T22:32:17.933Z,15.13
2018-03-16T22:34:45.229Z,17.17
2018-03-16T22:37:12.501Z,15.30
2018-03-16T22:39:39.766Z,15.70
2018-03-16T22:42:07.054Z,18.17
2018-03-16T22:44:34.313Z,16.67
2018-03-16T22:47:01.628Z,15.70
2018-03-16T22:49:28.881Z,15.20
2018-03-16T22:51:56.164Z,14.57
2018-03-16T22:54:23.445Z,14.77
2018-03-16T22:56:50.730Z,16.50
2018-03-16T22:59:17.997Z,15.47
2018-03-16T23:01:45.277Z,15.40
2018-03-16T23:04:12.666Z,15.97
2018-03-16T23:06:40.041Z,16.13
2018-03-16T23:09:07.391Z,16.73
2018-03-16T23:11:34.655Z,17.20
2018-03-16T23:14:02.094Z,17.27
2018-03-16T23:16:29.396Z,18.47
2018-03-16T23:18:56.660Z,18.00
2018-03-16T23:21:23.925Z,18.07
2018-03-16T23:23:51.359Z,17.53
2018-03-16T23:26:18.663Z,16.87
2018-03-16T23:28:45.944Z,19.30
2018-03-16T23:31:13.208Z,18.53
2018-03-16T23:33:40.495Z,16.47
2018-03-16T23:36:07.761Z,16.47
2018-03-16T23:38:35.056Z,17.60
2018-03-16T23:41:02.313Z,17.83
2018-03-16T23:43:29.618Z,17.60
2018-03-16T23:45:56.874Z,16.00
2018-03-16T23:48:24.137Z,18.03
2018-03-16T23:50:51.428Z,18.00
2018-03-16T23:53:18.786Z,17.47
2018-03-16T23:55:46.083Z,17.40
2018-03-16T23:58:13.370Z,16.67
